createdAt,value
2023-04-15T00:00:27.004Z,10.0
2023-04-15T00:01:26.966Z,10.0
2023-04-15T00:02:28.306Z,10.0
2023-04-15T00:03:27.248Z,10.0
2023-04-15T00:04:27.135Z,10.0
2023-04-15T00:05:26.994Z,10.0
2023-04-15T00:06:26.992Z,9.9
2023-04-15T00:07:26.949Z,9.9
2023-04-15T00:08:27.039Z,9.9
2023-04-15T00:09:27.085Z,9.9
2023-04-15T00:10:27.007Z,9.9
2023-04-15T00:11:27.001Z,9.9
2023-04-15T00:12:26.985Z,9.9
2023-04-15T00:13:27.025Z,9.9
2023-04-15T00:14:27.014Z,9.9
2023-04-15T00:15:26.982Z,9.9
2023-04-15T00:16:27.019Z,9.9
2023-04-15T00:17:27.002Z,9.9
2023-04-15T00:18:26.960Z,9.9
2023-04-15T00:19:27.014Z,9.9
2023-04-15T00:20:27.116Z,9.9
2023-04-15T00:21:26.987Z,9.9
2023-04-15T00:22:26.946Z,9.9
2023-04-15T00:23:26.995Z,9.8
2023-04-15T00:24:26.980Z,9.8
2023-04-15T00:25:26.970Z,9.8
2023-04-15T00:26:26.912Z,9.8
2023-04-15T00:27:26.947Z,9.8
2023-04-15T00:28:26.960Z,9.8
2023-04-15T00:29:27.045Z,9.8
2023-04-15T00:30:26.949Z,9.8
2023-04-15T00:31:27.167Z,9.8
2023-04-15T00:32:26.985Z,9.8
2023-04-15T00:33:26.948Z,9.8
2023-04-15T00:34:26.965Z,9.8
2023-04-15T00:35:27.180Z,9.8
2023-04-15T00:36:26.925Z,9.8
2023-04-15T00:37:26.963Z,9.8
2023-04-15T00:38:26.913Z,9.8
2023-04-15T00:39:26.933Z,9.7
2023-04-15T00:40:26.962Z,9.7
2023-04-15T00:41:26.919Z,9.7
2023-04-15T00:42:27.153Z,9.7
2023-04-15T00:43:26.895Z,9.7
2023-04-15T00:44:27.029Z,9.7
2023-04-15T00:45:26.960Z,9.7
2023-04-15T00:46:26.952Z,9.7
2023-04-15T00:47:30.903Z,9.7
2023-04-15T00:48:26.998Z,9.7
2023-04-15T00:49:26.993Z,9.7
2023-04-15T00:50:26.970Z,9.7
2023-04-15T00:51:26.938Z,9.7
2023-04-15T00:52:26.930Z,9.7
2023-04-15T00:53:27.200Z,9.7
2023-04-15T00:54:27.058Z,9.7
2023-04-15T00:55:26.989Z,9.6
2023-04-15T00:56:26.932Z,9.6
2023-04-15T00:57:26.899Z,9.7
2023-04-15T00:58:26.981Z,9.6
2023-04-15T00:59:26.926Z,9.6
2023-04-15T01:00:27.096Z,9.6
2023-04-15T01:01:26.898Z,9.6
2023-04-15T01:02:27.011Z,9.6
2023-04-15T01:03:27.071Z,9.6
2023-04-15T01:04:27.240Z,9.6
2023-04-15T01:05:26.943Z,9.6
2023-04-15T01:06:26.965Z,9.6
2023-04-15T01:07:26.915Z,9.6
2023-04-15T01:08:26.849Z,9.6
2023-04-15T01:09:26.974Z,9.6
2023-04-15T01:10:26.862Z,9.6
2023-04-15T01:11:26.859Z,9.6
2023-04-15T01:12:26.878Z,9.6
2023-04-15T01:13:26.894Z,9.6
2023-04-15T01:14:26.894Z,9.6
2023-04-15T01:15:27.027Z,9.6
2023-04-15T01:16:26.924Z,9.6
2023-04-15T01:17:26.937Z,9.6
2023-04-15T01:18:26.869Z,9.6
2023-04-15T01:19:26.922Z,9.6
2023-04-15T01:20:26.846Z,9.6
2023-04-15T01:21:27.134Z,9.6
2023-04-15T01:22:28.746Z,9.6
2023-04-15T01:23:26.925Z,9.6
2023-04-15T01:24:27.001Z,9.6
2023-04-15T01:25:26.852Z,9.6
2023-04-15T01:26:39.476Z,9.6
2023-04-15T01:27:26.842Z,9.5
2023-04-15T01:28:26.921Z,9.5
2023-04-15T01:29:30.497Z,9.5
2023-04-15T01:30:30.935Z,9.5
2023-04-15T01:31:27.086Z,9.5
2023-04-15T01:32:26.907Z,9.5
2023-04-15T01:33:34.597Z,9.5
2023-04-15T01:34:26.832Z,9.5
2023-04-15T01:35:26.873Z,9.5
2023-04-15T01:36:26.886Z,9.5
2023-04-15T01:37:26.965Z,9.5
2023-04-15T01:38:26.937Z,9.5
2023-04-15T01:39:26.797Z,9.5
2023-04-15T01:40:26.881Z,9.5
2023-04-15T01:41:26.825Z,9.5
2023-04-15T01:42:26.819Z,9.5
2023-04-15T01:43:27.100Z,9.5
2023-04-15T01:44:27.103Z,9.5
2023-04-15T01:45:32.694Z,9.5
2023-04-15T01:46:32.783Z,9.5
2023-04-15T01:47:34.478Z,9.5
2023-04-15T01:48:35.780Z,9.5
2023-04-15T01:49:32.697Z,9.5
2023-04-15T01:50:35.938Z,9.5
2023-04-15T01:51:32.719Z,9.5
2023-04-15T01:52:42.321Z,9.5
2023-04-15T01:53:39.588Z,9.5
2023-04-15T01:54:33.437Z,9.5
2023-04-15T01:55:32.757Z,9.5
2023-04-15T01:56:32.666Z,9.5
2023-04-15T01:57:36.345Z,9.5
2023-04-15T01:58:32.680Z,9.5
2023-04-15T01:59:32.710Z,9.5
2023-04-15T02:00:32.770Z,9.4
2023-04-15T02:01:32.716Z,9.4
2023-04-15T02:02:32.783Z,9.4
2023-04-15T02:03:32.819Z,9.4
2023-04-15T02:04:32.716Z,9.4
2023-04-15T02:05:34.028Z,9.4
2023-04-15T02:06:32.688Z,9.4
2023-04-15T02:07:33.683Z,9.4
2023-04-15T02:08:32.678Z,9.4
2023-04-15T02:09:32.879Z,9.4
2023-04-15T02:10:34.082Z,9.4
2023-04-15T02:11:32.814Z,9.4
2023-04-15T02:12:39.691Z,9.4
2023-04-15T02:13:33.530Z,9.4
2023-04-15T02:14:34.418Z,9.4
2023-04-15T02:15:33.192Z,9.4
2023-04-15T02:16:37.399Z,9.4
2023-04-15T02:17:50.194Z,9.4
2023-04-15T02:18:32.661Z,9.4
2023-04-15T02:19:32.830Z,9.4
2023-04-15T02:20:32.645Z,9.4
2023-04-15T02:21:32.688Z,9.4
2023-04-15T02:22:32.622Z,9.3
2023-04-15T02:23:32.757Z,9.4
2023-04-15T02:24:32.638Z,9.4
2023-04-15T02:25:32.794Z,9.3
2023-04-15T02:26:32.956Z,9.3
2023-04-15T02:27:32.655Z,9.4
2023-04-15T02:28:32.645Z,9.3
2023-04-15T02:29:32.640Z,9.3
2023-04-15T02:30:33.546Z,9.3
2023-04-15T02:31:32.960Z,9.3
2023-04-15T02:32:32.702Z,9.3
2023-04-15T02:33:33.065Z,9.3
2023-04-15T02:34:35.775Z,9.3
2023-04-15T02:35:32.697Z,9.3
2023-04-15T02:36:32.613Z,9.3
2023-04-15T02:37:32.639Z,9.3
2023-04-15T02:38:32.603Z,9.3
2023-04-15T02:39:32.821Z,9.3
2023-04-15T02:40:32.683Z,9.3
2023-04-15T02:41:32.591Z,9.2
2023-04-15T02:42:32.730Z,9.2
2023-04-15T02:43:32.602Z,9.2
2023-04-15T02:44:32.673Z,9.2
2023-04-15T02:45:32.626Z,9.2
2023-04-15T02:46:32.673Z,9.2
2023-04-15T02:47:32.697Z,9.2
2023-04-15T02:48:32.579Z,9.1
2023-04-15T02:49:32.628Z,9.1
2023-04-15T02:50:32.618Z,9.1
2023-04-15T02:51:32.641Z,9.1
2023-04-15T02:52:32.641Z,9.1
2023-04-15T02:53:32.686Z,9.1
2023-04-15T02:54:32.583Z,9.1
2023-04-15T02:55:32.647Z,9.1
2023-04-15T02:56:32.638Z,9.1
2023-04-15T02:57:32.571Z,9.0
2023-04-15T02:58:32.632Z,9.0
2023-04-15T02:59:32.622Z,9.0
2023-04-15T03:00:32.611Z,9.0
2023-04-15T03:01:32.787Z,9.0
2023-04-15T03:02:32.723Z,8.9
2023-04-15T03:03:32.759Z,8.9
2023-04-15T03:04:32.831Z,8.9
2023-04-15T03:05:32.598Z,8.9
2023-04-15T03:06:32.750Z,8.9
2023-04-15T03:07:32.549Z,8.8
2023-04-15T03:08:32.651Z,8.8
2023-04-15T03:09:32.557Z,8.7
2023-04-15T03:10:32.575Z,8.7
2023-04-15T03:11:32.907Z,8.7
2023-04-15T03:12:32.658Z,8.7
2023-04-15T03:13:32.639Z,8.6
2023-04-15T03:14:32.577Z,8.6
2023-04-15T03:15:32.758Z,8.6
2023-04-15T03:16:32.531Z,8.6
2023-04-15T03:17:32.575Z,8.6
2023-04-15T03:18:32.589Z,8.6
2023-04-15T03:19:32.556Z,8.5
2023-04-15T03:20:32.647Z,8.5
2023-04-15T03:21:32.550Z,8.5
2023-04-15T03:22:32.562Z,8.5
2023-04-15T03:23:32.537Z,8.5
2023-04-15T03:24:32.569Z,8.5
2023-04-15T03:25:32.539Z,8.4
2023-04-15T03:26:32.628Z,8.4
2023-04-15T03:27:32.572Z,8.4
2023-04-15T03:28:32.556Z,8.4
2023-04-15T03:29:32.538Z,8.4
2023-04-15T03:30:32.513Z,8.4
2023-04-15T03:31:32.550Z,8.4
2023-04-15T03:32:32.554Z,8.4
2023-04-15T03:33:32.576Z,8.4
2023-04-15T03:34:32.553Z,8.4
2023-04-15T03:35:32.530Z,8.3
2023-04-15T03:36:32.523Z,8.3
2023-04-15T03:37:32.672Z,8.3
2023-04-15T03:38:32.668Z,8.3
2023-04-15T03:39:32.561Z,8.3
2023-04-15T03:40:32.511Z,8.3
2023-04-15T03:41:32.532Z,8.3
2023-04-15T03:42:32.527Z,8.3
2023-04-15T03:43:32.700Z,8.2
2023-04-15T03:44:32.520Z,8.2
2023-04-15T03:45:32.671Z,8.2
2023-04-15T03:46:32.572Z,8.2
2023-04-15T03:47:32.580Z,8.2
2023-04-15T03:48:32.681Z,8.2
2023-04-15T03:49:32.558Z,8.1
2023-04-15T03:50:32.788Z,8.1
2023-04-15T03:51:32.508Z,8.1
2023-04-15T03:52:32.525Z,8.1
2023-04-15T03:53:32.484Z,8.1
2023-04-15T03:54:32.539Z,8.1
2023-04-15T03:55:32.455Z,8.0
2023-04-15T03:56:32.482Z,8.0
2023-04-15T03:57:32.564Z,8.0
2023-04-15T03:58:32.579Z,8.0
2023-04-15T03:59:32.445Z,7.9
2023-04-15T04:00:32.521Z,7.9
2023-04-15T04:01:32.490Z,7.9
2023-04-15T04:02:32.652Z,7.9
2023-04-15T04:03:32.828Z,7.8
2023-04-15T04:04:32.600Z,7.8
2023-04-15T04:05:32.500Z,7.8
2023-04-15T04:06:32.459Z,7.8
2023-04-15T04:07:32.472Z,7.7
2023-04-15T04:08:32.508Z,7.7
2023-04-15T04:09:32.521Z,7.7
2023-04-15T04:10:32.606Z,7.7
2023-04-15T04:11:32.433Z,7.6
2023-04-15T04:12:32.476Z,7.6
2023-04-15T04:13:32.628Z,7.6
2023-04-15T04:14:32.482Z,7.6
2023-04-15T04:15:32.484Z,7.6
2023-04-15T04:16:32.490Z,7.6
2023-04-15T04:17:32.491Z,7.6
2023-04-15T04:18:32.529Z,7.5
2023-04-15T04:19:32.550Z,7.5
2023-04-15T04:20:32.473Z,7.5
2023-04-15T04:21:32.622Z,7.5
2023-04-15T04:22:32.430Z,7.5
2023-04-15T04:23:32.447Z,7.5
2023-04-15T04:24:32.455Z,7.5
2023-04-15T04:25:32.422Z,7.5
2023-04-15T04:26:32.431Z,7.5
2023-04-15T04:27:33.644Z,7.5
2023-04-15T04:28:32.405Z,7.5
2023-04-15T04:29:32.428Z,7.5
2023-04-15T04:30:32.456Z,7.5
2023-04-15T04:31:32.458Z,7.5
2023-04-15T04:32:32.631Z,7.5
2023-04-15T04:33:32.495Z,7.5
2023-04-15T04:34:32.421Z,7.5
2023-04-15T04:35:32.417Z,7.5
2023-04-15T04:37:33.334Z,7.5
2023-04-15T04:38:32.401Z,7.5
2023-04-15T04:39:32.413Z,7.5
2023-04-15T04:40:32.390Z,7.5
2023-04-15T04:41:32.414Z,7.5
2023-04-15T04:42:32.392Z,7.5
2023-04-15T04:43:32.534Z,7.5
2023-04-15T04:44:32.427Z,7.5
2023-04-15T04:45:32.415Z,7.5
2023-04-15T04:46:32.533Z,7.5
2023-04-15T04:47:32.547Z,7.5
2023-04-15T04:48:32.396Z,7.5
2023-04-15T04:49:32.405Z,7.5
2023-04-15T04:50:32.369Z,7.5
2023-04-15T04:51:32.433Z,7.5
2023-04-15T04:52:32.496Z,7.5
2023-04-15T04:53:32.359Z,7.6
2023-04-15T04:54:32.591Z,7.6
2023-04-15T04:55:32.405Z,7.6
2023-04-15T04:56:32.400Z,7.6
2023-04-15T04:57:32.403Z,7.6
2023-04-15T04:58:32.362Z,7.6
2023-04-15T04:59:32.362Z,7.6
2023-04-15T05:00:32.392Z,7.6
2023-04-15T05:01:32.490Z,7.7
2023-04-15T05:02:32.568Z,7.7
2023-04-15T05:03:33.007Z,7.7
2023-04-15T05:04:33.158Z,7.7
2023-04-15T05:05:32.969Z,7.7
2023-04-15T05:06:32.564Z,7.7
2023-04-15T05:07:32.597Z,7.7
2023-04-15T05:08:32.444Z,7.7
2023-04-15T05:09:32.464Z,7.7
2023-04-15T05:10:32.432Z,7.7
2023-04-15T05:11:32.448Z,7.7
2023-04-15T05:12:32.433Z,7.7
2023-04-15T05:13:32.561Z,7.7
2023-04-15T05:14:32.462Z,7.8
2023-04-15T05:15:33.172Z,7.8
2023-04-15T05:16:32.333Z,7.8
2023-04-15T05:17:32.377Z,7.8
2023-04-15T05:18:32.385Z,7.8
2023-04-15T05:19:32.504Z,7.8
2023-04-15T05:20:32.439Z,7.8
2023-04-15T05:21:32.300Z,7.8
2023-04-15T05:22:32.469Z,7.9
2023-04-15T05:23:32.351Z,7.9
2023-04-15T05:24:32.429Z,7.9
2023-04-15T05:25:32.350Z,7.9
2023-04-15T05:26:32.464Z,7.9
2023-04-15T05:27:32.809Z,7.9
2023-04-15T05:28:32.398Z,7.9
2023-04-15T05:29:32.469Z,7.9
2023-04-15T05:30:32.340Z,7.9
2023-04-15T05:31:32.565Z,7.9
2023-04-15T05:32:32.424Z,8.0
2023-04-15T05:33:32.384Z,8.0
2023-04-15T05:34:32.369Z,8.0
2023-04-15T05:35:32.439Z,8.0
2023-04-15T05:36:32.393Z,8.0
2023-04-15T05:37:32.287Z,8.0
2023-04-15T05:38:32.302Z,8.0
2023-04-15T05:39:32.492Z,8.1
2023-04-15T05:40:32.294Z,8.1
2023-04-15T05:41:32.315Z,8.1
2023-04-15T05:42:32.320Z,8.1
2023-04-15T05:43:32.296Z,8.1
2023-04-15T05:44:32.412Z,8.1
2023-04-15T05:45:32.311Z,8.1
2023-04-15T05:46:32.323Z,8.1
2023-04-15T05:47:32.491Z,8.1
2023-04-15T05:48:32.312Z,8.1
2023-04-15T05:49:32.353Z,8.2
2023-04-15T05:50:32.294Z,8.2
2023-04-15T05:51:32.294Z,8.2
2023-04-15T05:52:32.278Z,8.2
2023-04-15T05:53:32.283Z,8.2
2023-04-15T05:54:32.483Z,8.2
2023-04-15T05:55:32.315Z,8.2
2023-04-15T05:56:32.297Z,8.3
2023-04-15T05:57:32.285Z,8.3
2023-04-15T05:58:32.415Z,8.3
2023-04-15T05:59:32.364Z,8.3
2023-04-15T06:00:32.371Z,8.3
2023-04-15T06:01:32.256Z,8.3
2023-04-15T06:02:32.320Z,8.3
2023-04-15T06:03:32.405Z,8.4
2023-04-15T06:04:32.445Z,8.4
2023-04-15T06:05:32.329Z,8.4
2023-04-15T06:06:32.247Z,8.4
2023-04-15T06:07:32.594Z,8.4
2023-04-15T06:08:32.253Z,8.4
2023-04-15T06:09:32.222Z,8.4
2023-04-15T06:10:32.279Z,8.4
2023-04-15T06:11:32.258Z,8.5
2023-04-15T06:12:32.297Z,8.5
2023-04-15T06:13:32.249Z,8.5
2023-04-15T06:14:32.257Z,8.5
2023-04-15T06:15:32.285Z,8.6
2023-04-15T06:16:32.374Z,8.6
2023-04-15T06:17:32.302Z,8.6
2023-04-15T06:18:32.212Z,8.6
2023-04-15T06:19:32.237Z,8.7
2023-04-15T06:20:32.436Z,8.7
2023-04-15T06:21:32.215Z,8.7
2023-04-15T06:22:32.306Z,8.8
2023-04-15T06:23:32.277Z,8.8
2023-04-15T06:24:32.217Z,8.8
2023-04-15T06:25:32.218Z,8.8
2023-04-15T06:26:32.239Z,8.9
2023-04-15T06:27:32.256Z,8.9
2023-04-15T06:28:32.393Z,8.9
2023-04-15T06:29:32.215Z,8.9
2023-04-15T06:30:32.224Z,9.0
2023-04-15T06:31:32.402Z,9.0
2023-04-15T06:32:32.249Z,9.1
2023-04-15T06:33:32.354Z,9.1
2023-04-15T06:34:32.185Z,9.1
2023-04-15T06:35:32.208Z,9.1
2023-04-15T06:38:32.310Z,9.2
2023-04-15T06:39:32.189Z,9.3
2023-04-15T06:40:32.236Z,9.3
2023-04-15T06:41:32.216Z,9.3
2023-04-15T06:42:32.242Z,9.4
2023-04-15T06:43:32.352Z,9.4
2023-04-15T06:44:33.888Z,9.4
2023-04-15T06:45:32.253Z,9.4
2023-04-15T06:46:32.226Z,9.5
2023-04-15T06:47:32.335Z,9.5
2023-04-15T06:48:32.195Z,9.5
2023-04-15T06:49:32.229Z,9.6
2023-04-15T06:50:32.213Z,9.6
2023-04-15T06:51:32.194Z,9.6
2023-04-15T06:52:32.363Z,9.6
2023-04-15T06:53:32.206Z,9.6
2023-04-15T06:54:32.258Z,9.6
2023-04-15T06:55:32.194Z,9.6
2023-04-15T06:56:32.427Z,9.7
2023-04-15T06:57:33.821Z,9.7
2023-04-15T06:58:32.156Z,9.7
2023-04-15T06:59:32.165Z,9.7
2023-04-15T07:00:32.164Z,9.7
2023-04-15T07:01:32.377Z,9.8
2023-04-15T07:02:32.278Z,9.8
2023-04-15T07:03:33.005Z,9.8
2023-04-15T07:04:32.345Z,9.8
2023-04-15T07:05:32.182Z,9.9
2023-04-15T07:06:32.202Z,9.9
2023-04-15T07:07:32.178Z,9.9
2023-04-15T07:08:32.164Z,10.0
2023-04-15T07:09:32.197Z,10.0
2023-04-15T07:10:32.181Z,10.1
2023-04-15T07:11:32.164Z,10.1
2023-04-15T07:12:32.225Z,10.1
2023-04-15T07:13:32.127Z,10.2
2023-04-15T07:14:32.206Z,10.2
2023-04-15T07:15:32.250Z,10.3
2023-04-15T07:16:32.123Z,10.3
2023-04-15T07:17:32.161Z,10.3
2023-04-15T07:18:32.138Z,10.4
2023-04-15T07:19:32.166Z,10.4
2023-04-15T07:20:32.205Z,10.4
2023-04-15T07:21:32.114Z,10.4
2023-04-15T07:22:32.136Z,10.5
2023-04-15T07:23:32.232Z,10.5
2023-04-15T07:24:32.311Z,10.5
2023-04-15T07:25:32.135Z,10.6
2023-04-15T07:26:32.117Z,10.6
2023-04-15T07:27:32.133Z,10.6
2023-04-15T07:28:32.160Z,10.7
2023-04-15T07:29:32.228Z,10.7
2023-04-15T07:30:32.121Z,10.8
2023-04-15T07:31:32.244Z,10.8
2023-04-15T07:32:32.193Z,10.9
2023-04-15T07:33:32.149Z,10.9
2023-04-15T07:34:32.732Z,10.9
2023-04-15T07:35:32.308Z,11.0
2023-04-15T07:36:32.086Z,11.0
2023-04-15T07:37:32.102Z,11.0
2023-04-15T07:38:32.091Z,11.1
2023-04-15T07:39:32.128Z,11.1
2023-04-15T07:40:32.143Z,11.1
2023-04-15T07:41:32.145Z,11.1
2023-04-15T07:42:32.122Z,11.2
2023-04-15T07:43:32.116Z,11.2
2023-04-15T07:44:32.168Z,11.2
2023-04-15T07:45:32.216Z,11.2
2023-04-15T07:46:32.260Z,11.3
2023-04-15T07:47:32.111Z,11.3
2023-04-15T07:48:32.161Z,11.3
2023-04-15T07:49:32.113Z,11.4
2023-04-15T07:50:32.169Z,11.4
2023-04-15T07:51:32.178Z,11.4
2023-04-15T07:52:32.172Z,11.4
2023-04-15T07:53:32.125Z,11.4
2023-04-15T07:54:32.090Z,11.5
2023-04-15T07:55:32.268Z,11.5
2023-04-15T07:56:32.049Z,11.6
2023-04-15T07:57:32.351Z,11.6
2023-04-15T07:58:32.153Z,11.6
2023-04-15T07:59:32.099Z,11.7
2023-04-15T08:00:32.095Z,11.7
2023-04-15T08:01:32.116Z,11.7
2023-04-15T08:02:32.237Z,11.7
2023-04-15T08:03:32.133Z,11.7
2023-04-15T08:04:32.247Z,11.7
2023-04-15T08:05:32.095Z,11.7
2023-04-15T08:06:32.101Z,11.7
2023-04-15T08:07:32.052Z,11.7
2023-04-15T08:08:32.071Z,11.7
2023-04-15T08:09:32.107Z,11.8
2023-04-15T08:10:32.037Z,11.8
2023-04-15T08:11:32.130Z,11.8
2023-04-15T08:12:32.091Z,11.8
2023-04-15T08:13:32.157Z,11.8
2023-04-15T08:14:32.064Z,11.8
2023-04-15T08:15:32.129Z,11.9
2023-04-15T08:16:32.183Z,11.9
2023-04-15T08:17:32.063Z,11.9
2023-04-15T08:18:32.040Z,11.9
2023-04-15T08:19:32.190Z,11.9
2023-04-15T08:20:32.065Z,11.9
2023-04-15T08:21:32.066Z,11.9
2023-04-15T08:22:32.071Z,11.9
2023-04-15T08:23:32.028Z,11.9
2023-04-15T08:24:33.106Z,11.9
2023-04-15T08:25:32.055Z,11.9
2023-04-15T08:26:31.992Z,12.0
2023-04-15T08:27:32.036Z,12.0
2023-04-15T08:28:32.054Z,12.0
2023-04-15T08:29:32.048Z,12.0
2023-04-15T08:30:32.217Z,12.0
2023-04-15T08:31:32.071Z,12.0
2023-04-15T08:32:32.109Z,12.0
2023-04-15T08:33:32.052Z,12.1
2023-04-15T08:34:32.014Z,12.1
2023-04-15T08:35:31.998Z,12.1
2023-04-15T08:36:32.007Z,12.1
2023-04-15T08:37:32.031Z,12.1
2023-04-15T08:38:32.017Z,12.1
2023-04-15T08:39:32.038Z,12.1
2023-04-15T08:40:32.031Z,12.1
2023-04-15T08:41:32.259Z,12.1
2023-04-15T08:42:32.640Z,12.1
2023-04-15T08:43:32.030Z,12.1
2023-04-15T08:44:31.988Z,12.1
2023-04-15T08:45:32.063Z,12.1
2023-04-15T08:46:32.123Z,12.1
2023-04-15T08:47:32.090Z,12.1
2023-04-15T08:48:32.048Z,12.1
2023-04-15T08:49:32.042Z,12.1
2023-04-15T08:50:32.240Z,12.1
2023-04-15T08:51:32.009Z,12.1
2023-04-15T08:52:32.350Z,12.1
2023-04-15T08:53:32.076Z,12.0
2023-04-15T08:54:32.009Z,12.0
2023-04-15T08:55:32.017Z,12.0
2023-04-15T08:56:32.050Z,12.0
2023-04-15T08:57:31.960Z,12.0
2023-04-15T08:58:32.037Z,12.0
2023-04-15T08:59:31.961Z,12.0
2023-04-15T09:00:32.106Z,12.0
2023-04-15T09:01:32.032Z,12.0
2023-04-15T09:02:32.022Z,12.0
2023-04-15T09:03:32.348Z,12.0
2023-04-15T09:04:31.997Z,12.0
2023-04-15T09:05:32.008Z,12.0
2023-04-15T09:06:31.999Z,12.1
2023-04-15T09:07:32.006Z,12.1
2023-04-15T09:08:31.990Z,12.1
2023-04-15T09:09:32.046Z,12.1
2023-04-15T09:10:32.024Z,12.1
2023-04-15T09:11:31.977Z,12.1
2023-04-15T09:12:32.055Z,12.1
2023-04-15T09:13:32.029Z,12.1
2023-04-15T09:14:32.090Z,12.1
2023-04-15T09:15:31.946Z,12.1
2023-04-15T09:16:31.980Z,12.1
2023-04-15T09:17:32.016Z,12.0
2023-04-15T09:18:32.050Z,12.0
2023-04-15T09:19:31.945Z,12.0
2023-04-15T09:20:32.024Z,12.0
2023-04-15T09:21:31.933Z,12.0
2023-04-15T09:22:32.027Z,11.9
2023-04-15T09:23:32.187Z,11.9
2023-04-15T09:24:31.929Z,11.9
2023-04-15T09:26:31.981Z,11.9
2023-04-15T09:28:32.055Z,11.9
2023-04-15T09:29:31.966Z,11.8
2023-04-15T09:30:31.934Z,11.8
2023-04-15T09:31:31.927Z,11.8
2023-04-15T09:32:31.941Z,11.8
2023-04-15T09:33:31.993Z,11.8
2023-04-15T09:34:32.057Z,11.8
2023-04-15T09:35:31.962Z,11.8
2023-04-15T09:36:32.071Z,11.8
2023-04-15T09:37:32.599Z,11.8
2023-04-15T09:38:31.933Z,11.8
2023-04-15T09:39:32.079Z,11.9
2023-04-15T09:40:32.103Z,11.9
2023-04-15T09:41:32.122Z,11.9
2023-04-15T09:42:32.164Z,11.9
2023-04-15T09:43:31.911Z,11.9
2023-04-15T09:44:31.947Z,11.9
2023-04-15T09:45:31.914Z,11.9
2023-04-15T09:46:31.939Z,11.9
2023-04-15T09:47:32.468Z,11.9
2023-04-15T09:48:31.910Z,11.9
2023-04-15T09:49:32.015Z,11.9
2023-04-15T09:50:31.933Z,11.9
2023-04-15T09:51:31.929Z,11.9
2023-04-15T09:52:31.884Z,12.0
2023-04-15T09:53:32.006Z,12.0
2023-04-15T09:54:31.861Z,12.1
2023-04-15T09:55:31.886Z,12.1
2023-04-15T09:56:31.881Z,12.1
2023-04-15T09:57:31.879Z,12.1
2023-04-15T09:58:32.103Z,12.1
2023-04-15T09:59:31.908Z,12.2
2023-04-15T10:00:31.882Z,12.2
2023-04-15T10:01:31.890Z,12.2
2023-04-15T10:02:31.965Z,12.2
2023-04-15T10:03:32.089Z,12.2
2023-04-15T10:04:31.885Z,12.2
2023-04-15T10:05:31.893Z,12.2
2023-04-15T10:06:31.896Z,12.3
2023-04-15T10:07:31.899Z,12.3
2023-04-15T10:08:31.907Z,12.3
2023-04-15T10:09:31.909Z,12.3
2023-04-15T10:10:31.877Z,12.3
2023-04-15T10:11:31.983Z,12.3
2023-04-15T10:12:31.912Z,12.4
2023-04-15T10:13:31.872Z,12.4
2023-04-15T10:14:31.982Z,12.4
2023-04-15T10:15:31.886Z,12.5
2023-04-15T10:16:31.860Z,12.5
2023-04-15T10:17:31.937Z,12.5
2023-04-15T10:18:31.870Z,12.6
2023-04-15T10:19:32.161Z,12.6
2023-04-15T10:20:31.831Z,12.6
2023-04-15T10:21:31.868Z,12.5
2023-04-15T10:22:31.845Z,12.5
2023-04-15T10:23:31.892Z,12.6
2023-04-15T10:24:31.900Z,12.6
2023-04-15T10:25:31.881Z,12.6
2023-04-15T10:26:31.833Z,12.6
2023-04-15T10:27:31.818Z,12.6
2023-04-15T10:28:31.876Z,12.6
2023-04-15T10:29:54.817Z,12.6
2023-04-15T10:30:31.956Z,12.6
2023-04-15T10:31:31.898Z,12.6
2023-04-15T10:32:31.914Z,12.6
2023-04-15T10:33:31.838Z,12.7
2023-04-15T10:34:31.842Z,12.7
2023-04-15T10:35:31.855Z,12.8
2023-04-15T10:36:31.823Z,12.8
2023-04-15T10:37:31.841Z,12.8
2023-04-15T10:38:31.842Z,12.8
2023-04-15T10:39:31.851Z,12.8
2023-04-15T10:40:31.861Z,12.9
2023-04-15T10:41:32.012Z,12.9
2023-04-15T10:42:31.792Z,13.0
2023-04-15T10:43:31.870Z,13.1
2023-04-15T10:44:31.780Z,13.3
2023-04-15T10:45:31.866Z,13.4
2023-04-15T10:46:31.912Z,13.4
2023-04-15T10:48:31.856Z,13.5
2023-04-15T10:49:31.823Z,13.6
2023-04-15T10:50:31.802Z,13.7
2023-04-15T10:51:31.819Z,13.7
2023-04-15T10:52:31.986Z,13.7
2023-04-15T10:53:31.843Z,13.7
2023-04-15T10:54:31.892Z,13.7
2023-04-15T10:55:31.889Z,13.7
2023-04-15T10:56:31.835Z,13.7
2023-04-15T10:57:31.818Z,13.7
2023-04-15T10:58:31.827Z,13.7
2023-04-15T10:59:31.837Z,13.8
2023-04-15T11:00:31.796Z,13.8
2023-04-15T11:01:31.801Z,13.8
2023-04-15T11:02:31.938Z,13.8
2023-04-15T11:03:32.117Z,13.9
2023-04-15T11:04:31.977Z,13.9
2023-04-15T11:05:31.797Z,13.9
2023-04-15T11:06:31.758Z,14.0
2023-04-15T11:07:31.796Z,14.0
2023-04-15T11:08:31.893Z,14.0
2023-04-15T11:09:31.748Z,14.0
2023-04-15T11:10:31.810Z,14.0
2023-04-15T11:11:31.776Z,14.0
2023-04-15T11:12:31.784Z,14.0
2023-04-15T11:13:31.789Z,14.0
2023-04-15T11:14:31.944Z,14.0
2023-04-15T11:15:31.868Z,14.0
2023-04-15T11:16:31.793Z,14.0
2023-04-15T11:17:31.776Z,14.0
2023-04-15T11:18:31.780Z,14.0
2023-04-15T11:19:31.925Z,14.0
2023-04-15T11:20:31.800Z,14.1
2023-04-15T11:21:31.762Z,14.1
2023-04-15T11:22:31.796Z,14.1
2023-04-15T11:23:31.759Z,14.2
2023-04-15T11:24:31.801Z,14.3
2023-04-15T11:25:31.764Z,14.3
2023-04-15T11:26:31.763Z,14.3
2023-04-15T11:27:31.809Z,14.3
2023-04-15T11:28:31.765Z,14.3
2023-04-15T11:29:31.787Z,14.3
2023-04-15T11:30:31.757Z,14.3
2023-04-15T11:31:31.768Z,14.4
2023-04-15T11:32:31.772Z,14.4
2023-04-15T11:33:31.753Z,14.4
2023-04-15T11:34:32.190Z,14.4
2023-04-15T11:35:31.757Z,14.4
2023-04-15T11:36:32.090Z,14.4
2023-04-15T11:37:31.732Z,14.4
2023-04-15T11:38:31.709Z,14.4
2023-04-15T11:39:31.771Z,14.4
2023-04-15T11:40:31.769Z,14.5
2023-04-15T11:41:31.743Z,14.5
2023-04-15T11:42:42.734Z,14.5
2023-04-15T11:43:31.765Z,14.5
2023-04-15T11:44:31.754Z,14.5
2023-04-15T11:45:31.781Z,14.6
2023-04-15T11:46:31.753Z,14.6
2023-04-15T11:47:31.889Z,14.7
2023-04-15T11:48:31.698Z,14.7
2023-04-15T11:49:31.755Z,14.7
2023-04-15T11:50:31.730Z,14.7
2023-04-15T11:51:31.689Z,14.7
2023-04-15T11:52:31.691Z,14.8
2023-04-15T11:53:31.731Z,14.8
2023-04-15T11:54:31.704Z,14.8
2023-04-15T11:55:31.815Z,14.9
2023-04-15T11:56:31.775Z,14.9
2023-04-15T11:57:31.718Z,15.0
2023-04-15T11:58:31.856Z,15.1
2023-04-15T11:59:44.490Z,15.1
2023-04-15T12:00:31.765Z,15.2
2023-04-15T12:01:31.701Z,15.3
2023-04-15T12:02:31.738Z,15.4
2023-04-15T12:03:32.114Z,15.4
2023-04-15T12:04:31.799Z,15.5
2023-04-15T12:05:32.283Z,15.6
2023-04-15T12:06:32.092Z,15.7
2023-04-15T12:07:31.711Z,15.8
2023-04-15T12:08:31.714Z,15.8
2023-04-15T12:09:32.518Z,15.8
2023-04-15T12:10:31.725Z,15.9
2023-04-15T12:11:31.711Z,15.9
2023-04-15T12:12:31.701Z,16.0
2023-04-15T12:13:31.681Z,16.0
2023-04-15T12:14:31.691Z,16.1
2023-04-15T12:15:31.702Z,16.1
2023-04-15T12:16:31.740Z,16.1
2023-04-15T12:17:31.803Z,16.1
2023-04-15T12:18:31.733Z,16.1
2023-04-15T12:19:31.647Z,16.1
2023-04-15T12:20:31.831Z,16.1
2023-04-15T12:21:31.672Z,16.2
2023-04-15T12:22:31.776Z,16.2
2023-04-15T12:23:32.072Z,16.2
2023-04-15T12:24:31.650Z,16.3
2023-04-15T12:25:31.638Z,16.3
2023-04-15T12:26:33.897Z,16.4
2023-04-15T12:27:31.734Z,16.4
2023-04-15T12:28:31.694Z,16.4
2023-04-15T12:29:31.724Z,16.4
2023-04-15T12:30:31.676Z,16.4
2023-04-15T12:31:31.942Z,16.4
2023-04-15T12:32:31.697Z,16.4
2023-04-15T12:33:31.776Z,16.4
2023-04-15T12:34:31.712Z,16.4
2023-04-15T12:35:31.650Z,16.4
2023-04-15T12:36:31.674Z,16.4
2023-04-15T12:37:31.635Z,16.4
2023-04-15T12:38:31.767Z,16.4
2023-04-15T12:39:31.634Z,16.4
2023-04-15T12:40:31.717Z,16.3
2023-04-15T12:41:31.740Z,16.3
2023-04-15T12:42:31.629Z,16.3
2023-04-15T12:43:31.704Z,16.3
2023-04-15T12:44:31.658Z,16.3
2023-04-15T12:45:31.743Z,16.3
2023-04-15T12:46:31.700Z,16.3
2023-04-15T12:47:31.689Z,16.4
2023-04-15T12:48:31.677Z,16.4
2023-04-15T12:49:31.668Z,16.4
2023-04-15T12:50:31.715Z,16.5
2023-04-15T12:51:31.611Z,16.5
2023-04-15T12:52:31.659Z,16.5
2023-04-15T12:53:31.708Z,16.5
2023-04-15T12:54:31.902Z,16.5
2023-04-15T12:55:31.644Z,16.5
2023-04-15T12:56:31.618Z,16.4
2023-04-15T12:57:31.646Z,16.4
2023-04-15T12:58:31.668Z,16.4
2023-04-15T12:59:31.593Z,16.4
2023-04-15T13:00:31.669Z,16.3
2023-04-15T13:01:31.630Z,16.3
2023-04-15T13:02:31.814Z,16.3
2023-04-15T13:03:31.877Z,16.3
2023-04-15T13:04:31.854Z,16.3
2023-04-15T13:05:31.847Z,16.3
2023-04-15T13:06:31.643Z,16.3
2023-04-15T13:07:31.677Z,16.3
2023-04-15T13:08:31.704Z,16.3
2023-04-15T13:09:32.722Z,16.3
2023-04-15T13:10:31.746Z,16.3
2023-04-15T13:11:31.588Z,16.3
2023-04-15T13:12:31.600Z,16.2
2023-04-15T13:13:31.660Z,16.2
2023-04-15T13:14:31.643Z,16.1
2023-04-15T13:15:31.616Z,16.1
2023-04-15T13:16:31.832Z,16.1
2023-04-15T13:17:31.727Z,16.0
2023-04-15T13:18:31.644Z,16.0
2023-04-15T13:19:31.595Z,16.0
2023-04-15T13:20:31.657Z,15.9
2023-04-15T13:21:31.604Z,15.9
2023-04-15T13:22:31.585Z,15.9
2023-04-15T13:23:31.781Z,15.9
2023-04-15T13:24:31.584Z,15.8
2023-04-15T13:25:31.653Z,15.8
2023-04-15T13:26:31.853Z,15.7
2023-04-15T13:27:31.751Z,15.7
2023-04-15T13:28:31.719Z,15.7
2023-04-15T13:29:31.659Z,15.6
2023-04-15T13:30:31.587Z,15.5
2023-04-15T13:31:31.675Z,15.5
2023-04-15T13:32:31.646Z,15.4
2023-04-15T13:33:31.675Z,15.4
2023-04-15T13:34:31.574Z,15.3
2023-04-15T13:35:31.558Z,15.3
2023-04-15T13:36:31.584Z,15.3
2023-04-15T13:37:31.587Z,15.3
2023-04-15T13:38:31.998Z,15.3